Terminal Aerodrome Forecast
Issued by NWS

Home | Current Version | Previous Version | Text Only | Print | Product List | Glossary Off
Versions: 1 2 3 4 5 6 7 8 9 10 11 12 13 14 15 16 17

000
FTUS43 KIWX 250500
TAFSBN
TAF
KSBN 250534Z 2506/2606 24015G25KT P6SM -SHSN OVC015
     FM251200 26012G19KT 6SM -SHSN OVC018
     FM251800 26012KT P6SM VCSH BKN025=

USA.gov is the U.S. government's official web portal to all federal, state and local government web resources and services.